Time;durP1;ratioP1;P1;durP2;ratioP2;P2;SDS_P1;SDS_P2;PMS_P1;PMS_P2;Temp;Humidity;BMP_temperature;BMP_pressure;BME280_temperature;BME280_humidity;BME280_pressure;Samples;Min_cycle;Max_cycle;Signal;HPM_P1;HPM_P2
2021/10/30 00:00:16;;;;;;;4.23;3.57;;;8.10;83.70;;;;;;5025246;28;20219;-77
2021/10/30 00:02:42;;;;;;;5.37;4.10;;;8.20;83.60;;;;;;5024152;28;20192;-77
2021/10/30 00:05:11;;;;;;;3.77;3.47;;;8.20;83.90;;;;;;5024877;28;20188;-77
2021/10/30 00:07:40;;;;;;;5.23;4.10;;;8.20;83.50;;;;;;5022654;28;20184;-77
2021/10/30 00:10:06;;;;;;;4.57;4.17;;;8.30;84.40;;;;;;5024225;28;20250;-77
2021/10/30 00:12:33;;;;;;;4.43;3.70;;;8.30;84.00;;;;;;5024824;28;20197;-77
2021/10/30 00:14:59;;;;;;;4.97;4.47;;;8.40;83.80;;;;;;5025089;28;20180;-77
2021/10/30 00:17:24;;;;;;;5.10;4.60;;;8.40;84.40;;;;;;5025705;28;20549;-77
2021/10/30 00:19:50;;;;;;;4.50;4.10;;;8.40;85.10;;;;;;5026703;28;20217;-77
2021/10/30 00:22:16;;;;;;;5.67;4.33;;;8.40;84.70;;;;;;5028778;28;20699;-77
2021/10/30 00:24:42;;;;;;;6.10;4.73;;;8.40;84.80;;;;;;5028623;28;20733;-77
2021/10/30 00:27:10;;;;;;;4.60;4.10;;;8.40;84.40;;;;;;5027816;28;20544;-77
2021/10/30 00:29:39;;;;;;;4.37;4.00;;;8.50;84.10;;;;;;5028339;28;20269;-77
2021/10/30 00:32:06;;;;;;;4.67;4.10;;;8.50;84.40;;;;;;5023732;28;20622;-78
2021/10/30 00:34:32;;;;;;;4.00;3.70;;;8.50;85.10;;;;;;5027724;28;20670;-78
2021/10/30 00:36:58;;;;;;;5.57;4.40;;;8.50;84.30;;;;;;5031530;28;20172;-78
2021/10/30 00:39:23;;;;;;;4.43;4.03;;;8.50;84.60;;;;;;5025107;28;20213;-77
2021/10/30 00:41:51;;;;;;;6.20;4.17;;;8.60;84.70;;;;;;5030703;28;20831;-78
2021/10/30 00:44:18;;;;;;;5.97;4.90;;;8.60;84.90;;;;;;5026261;28;20185;-78
2021/10/30 00:46:46;;;;;;;5.87;4.57;;;8.50;85.40;;;;;;5029473;28;20177;-78
2021/10/30 00:49:14;;;;;;;8.50;3.83;;;8.50;85.00;;;;;;5028957;28;20203;-78
2021/10/30 00:51:42;;;;;;;4.97;4.47;;;8.50;84.90;;;;;;5023769;28;20242;-78
2021/10/30 00:54:09;;;;;;;4.70;4.37;;;8.40;85.70;;;;;;5021924;28;20196;-78
2021/10/30 00:56:36;;;;;;;4.13;3.83;;;8.40;85.60;;;;;;5029212;28;20187;-78
2021/10/30 00:59:09;;;;;;;4.03;3.73;;;8.30;85.90;;;;;;5027009;28;20214;-77
2021/10/30 01:01:43;;;;;;;4.57;4.27;;;8.30;86.20;;;;;;5025468;28;20193;-78
2021/10/30 01:04:09;;;;;;;4.67;4.30;;;8.30;86.30;;;;;;5029327;28;20176;-78
2021/10/30 01:06:38;;;;;;;6.40;5.33;;;8.20;88.20;;;;;;5026905;28;20192;-78
2021/10/30 01:09:05;;;;;;;4.80;4.40;;;8.10;87.70;;;;;;5021497;28;20184;-77
2021/10/30 01:11:30;;;;;;;4.63;4.07;;;8.10;87.90;;;;;;5027104;28;20223;-77
2021/10/30 01:13:57;;;;;;;6.40;4.17;;;8.10;87.40;;;;;;5027230;28;20208;-78
2021/10/30 01:16:23;;;;;;;5.27;4.30;;;8.10;87.30;;;;;;5028211;28;20606;-78
2021/10/30 01:18:49;;;;;;;8.63;4.93;;;8.10;87.20;;;;;;5030076;28;20266;-78
2021/10/30 01:21:24;;;;;;;4.80;4.40;;;8.10;87.60;;;;;;5028157;28;20168;-78
2021/10/30 01:23:49;;;;;;;5.67;4.80;;;8.10;87.10;;;;;;5025302;28;20176;-78
2021/10/30 01:26:16;;;;;;;4.90;4.57;;;8.00;87.50;;;;;;5027711;28;20242;-78
2021/10/30 01:28:42;;;;;;;5.10;4.37;;;8.00;88.00;;;;;;5028704;28;20669;-78
2021/10/30 01:31:08;;;;;;;5.50;5.03;;;7.90;87.50;;;;;;5028619;28;20243;-77
2021/10/30 01:33:33;;;;;;;5.60;5.03;;;7.90;88.40;;;;;;5027731;28;20188;-78
2021/10/30 01:36:09;;;;;;;5.57;4.80;;;7.90;88.10;;;;;;5029396;28;20180;-77
2021/10/30 01:38:36;;;;;;;6.33;5.10;;;7.90;88.60;;;;;;5026277;28;20184;-77
2021/10/30 01:41:02;;;;;;;7.40;5.70;;;7.80;89.10;;;;;;5027974;28;20192;-77
2021/10/30 01:43:28;;;;;;;6.83;4.70;;;7.80;89.40;;;;;;5025857;28;20184;-77
2021/10/30 01:45:54;;;;;;;6.03;5.47;;;7.80;89.90;;;;;;5027537;28;20630;-77
2021/10/30 01:48:27;;;;;;;5.53;5.13;;;7.70;90.20;;;;;;5024924;28;20553;-77
2021/10/30 01:50:52;;;;;;;5.67;5.17;;;7.70;90.50;;;;;;5027519;28;20188;-77
2021/10/30 01:53:18;;;;;;;6.13;5.33;;;7.60;90.60;;;;;;5024869;28;20577;-77
2021/10/30 01:55:46;;;;;;;5.90;4.83;;;7.60;90.70;;;;;;5025912;28;20188;-77
2021/10/30 01:58:11;;;;;;;7.40;6.20;;;7.60;90.70;;;;;;5026882;28;20203;-77
2021/10/30 02:00:37;;;;;;;5.57;5.07;;;7.60;91.00;;;;;;5023708;28;20682;-78
2021/10/30 02:03:03;;;;;;;8.03;5.77;;;7.60;90.80;;;;;;5025396;28;20185;-78
2021/10/30 02:05:29;;;;;;;5.43;4.93;;;7.60;90.60;;;;;;5023600;28;20890;-78
2021/10/30 02:07:55;;;;;;;5.37;4.90;;;7.60;90.10;;;;;;5025708;28;20189;-78
2021/10/30 02:10:21;;;;;;;6.87;5.43;;;7.60;90.00;;;;;;5024376;28;20275;-78
2021/10/30 02:12:47;;;;;;;5.00;4.57;;;7.50;90.40;;;;;;5027362;28;20176;-78
2021/10/30 02:15:12;;;;;;;5.13;4.63;;;7.50;90.40;;;;;;5020382;28;20183;-78
2021/10/30 02:17:38;;;;;;;6.50;5.20;;;7.50;90.70;;;;;;5025647;28;20172;-77
2021/10/30 02:20:06;;;;;;;6.07;5.47;;;7.50;90.50;;;;;;5026054;28;20294;-77
2021/10/30 02:22:33;;;;;;;7.37;4.97;;;7.50;90.20;;;;;;5025720;28;20190;-75
2021/10/30 02:24:58;;;;;;;5.20;4.77;;;7.50;90.30;;;;;;5026519;28;20188;-75
2021/10/30 02:27:24;;;;;;;6.43;4.77;;;7.50;90.20;;;;;;5026877;28;20267;-75
2021/10/30 02:29:50;;;;;;;6.27;5.23;;;7.50;90.10;;;;;;5025708;28;20210;-76
2021/10/30 02:32:16;;;;;;;7.23;4.93;;;7.40;90.00;;;;;;5026709;28;20188;-76
2021/10/30 02:34:42;;;;;;;7.83;5.20;;;7.40;90.00;;;;;;5026227;28;20567;-76
2021/10/30 02:37:11;;;;;;;7.17;5.30;;;7.40;90.00;;;;;;5025434;28;20173;-76
2021/10/30 02:39:36;;;;;;;7.47;5.17;;;7.40;90.20;;;;;;5022896;28;20219;-76
2021/10/30 02:42:03;;;;;;;5.50;4.93;;;7.40;90.10;;;;;;5021760;28;20180;-76
2021/10/30 02:44:31;;;;;;;5.30;4.80;;;7.40;90.00;;;;;;5022424;28;20259;-77
2021/10/30 02:46:56;;;;;;;9.60;5.20;;;7.40;90.10;;;;;;5026811;28;20241;-77
2021/10/30 02:49:22;;;;;;;6.77;5.27;;;7.40;90.40;;;;;;5022539;28;20208;-76
2021/10/30 02:51:48;;;;;;;5.03;4.63;;;7.30;90.20;;;;;;5019576;28;20271;-76
2021/10/30 02:54:14;;;;;;;5.90;5.30;;;7.30;90.90;;;;;;5026270;28;20263;-79
2021/10/30 02:56:39;;;;;;;6.00;5.33;;;7.30;91.00;;;;;;5025898;28;20457;-78
2021/10/30 02:59:05;;;;;;;9.40;5.60;;;7.30;90.90;;;;;;5029146;28;20214;-78
2021/10/30 03:01:31;;;;;;;5.37;4.90;;;7.20;91.60;;;;;;5025176;28;20192;-77
2021/10/30 03:03:57;;;;;;;5.57;5.03;;;7.20;91.30;;;;;;5021235;28;20184;-77
2021/10/30 03:06:23;;;;;;;4.07;3.67;;;7.20;92.00;;;;;;5019812;28;20318;-77
2021/10/30 03:08:50;;;;;;;5.50;4.57;;;7.20;91.80;;;;;;5025219;28;20184;-77
2021/10/30 03:11:17;;;;;;;6.17;4.73;;;7.20;91.30;;;;;;5021896;28;20185;-77
2021/10/30 03:13:43;;;;;;;6.10;5.10;;;7.20;91.80;;;;;;5032329;28;20941;-76
2021/10/30 03:16:09;;;;;;;5.60;4.63;;;7.10;91.80;;;;;;5024183;28;20204;-75
2021/10/30 03:18:35;;;;;;;5.33;4.83;;;7.10;91.70;;;;;;5026477;28;20218;-76
2021/10/30 03:21:02;;;;;;;5.27;4.77;;;7.20;91.90;;;;;;5029363;28;20252;-76
2021/10/30 03:23:28;;;;;;;4.67;4.27;;;7.20;92.00;;;;;;5036663;28;20214;-77
2021/10/30 03:25:54;;;;;;;5.93;5.37;;;7.10;92.10;;;;;;5030586;28;20207;-76
2021/10/30 03:28:20;;;;;;;5.40;4.30;;;7.10;91.90;;;;;;5034552;28;20172;-76
2021/10/30 03:30:46;;;;;;;6.83;5.03;;;7.20;92.00;;;;;;5035280;28;20187;-77
2021/10/30 03:33:12;;;;;;;5.17;4.67;;;7.10;91.90;;;;;;5032795;28;20242;-77
2021/10/30 03:35:38;;;;;;;5.87;5.10;;;7.20;91.60;;;;;;5024825;28;20234;-77
2021/10/30 03:38:04;;;;;;;5.90;4.80;;;7.10;91.30;;;;;;5029704;28;20184;-78
2021/10/30 03:40:30;;;;;;;5.63;5.20;;;7.20;91.10;;;;;;5033431;28;20212;-78
2021/10/30 03:42:56;;;;;;;6.80;4.73;;;7.10;91.00;;;;;;5034941;28;20591;-79
2021/10/30 03:45:21;;;;;;;10.77;5.50;;;7.10;90.90;;;;;;5006862;28;20183;-78
2021/10/30 03:47:47;;;;;;;6.00;4.87;;;7.10;91.00;;;;;;5029382;28;20215;-77
2021/10/30 03:50:13;;;;;;;5.87;5.27;;;7.10;91.00;;;;;;5030296;28;20722;-76
2021/10/30 03:52:39;;;;;;;6.43;5.07;;;7.00;91.00;;;;;;5029804;28;20290;-76
2021/10/30 03:55:06;;;;;;;5.93;5.33;;;7.00;91.00;;;;;;5034736;28;20187;-76
2021/10/30 03:57:32;;;;;;;7.33;5.43;;;7.00;91.10;;;;;;5037999;28;20179;-77
2021/10/30 03:59:58;;;;;;;7.07;5.17;;;6.90;91.20;;;;;;5033905;28;20620;-77
2021/10/30 04:02:24;;;;;;;6.17;5.57;;;6.90;91.60;;;;;;5024424;28;20186;-77
2021/10/30 04:04:50;;;;;;;13.33;6.17;;;6.90;91.20;;;;;;5040107;28;20179;-77
2021/10/30 04:07:16;;;;;;;6.80;5.17;;;6.90;91.50;;;;;;5038414;28;20249;-77
2021/10/30 04:09:42;;;;;;;6.83;5.00;;;6.80;91.40;;;;;;5011136;28;20197;-77
2021/10/30 04:12:08;;;;;;;7.53;5.70;;;6.80;91.50;;;;;;5046846;28;20179;-77
2021/10/30 04:14:34;;;;;;;6.07;5.43;;;6.80;91.40;;;;;;5036034;28;20191;-78
2021/10/30 04:17:00;;;;;;;6.93;5.33;;;6.70;91.70;;;;;;5031169;28;20192;-77
2021/10/30 04:19:25;;;;;;;7.07;4.53;;;6.70;91.70;;;;;;5037717;28;20211;-79
2021/10/30 04:21:51;;;;;;;5.20;4.73;;;6.70;91.90;;;;;;5034944;28;20669;-78
2021/10/30 04:24:17;;;;;;;6.73;5.00;;;6.70;92.20;;;;;;5038065;28;20669;-78
2021/10/30 04:26:42;;;;;;;5.80;5.20;;;6.60;92.00;;;;;;5029752;28;20652;-78
2021/10/30 04:29:08;;;;;;;5.87;5.07;;;6.60;92.40;;;;;;5030854;28;20180;-77
2021/10/30 04:31:34;;;;;;;6.37;4.93;;;6.60;92.50;;;;;;5031433;28;20242;-76
2021/10/30 04:34:03;;;;;;;5.13;4.63;;;6.60;92.50;;;;;;5029705;28;20191;-78
2021/10/30 04:36:30;;;;;;;5.53;5.00;;;6.50;93.10;;;;;;5032250;28;20184;-78
2021/10/30 04:38:58;;;;;;;6.80;4.87;;;6.50;93.00;;;;;;5036414;28;20263;-77
2021/10/30 04:41:25;;;;;;;5.30;4.77;;;6.50;93.20;;;;;;5034833;28;20188;-76
2021/10/30 04:43:51;;;;;;;5.57;5.07;;;6.40;93.90;;;;;;5037206;28;20249;-76
2021/10/30 04:46:20;;;;;;;6.03;4.90;;;6.40;94.00;;;;;;5037610;28;20268;-75
2021/10/30 04:48:47;;;;;;;4.93;4.47;;;6.40;93.90;;;;;;5036125;28;20207;-76
2021/10/30 04:51:13;;;;;;;7.93;4.03;;;6.40;93.90;;;;;;5015939;28;20180;-75
2021/10/30 04:53:41;;;;;;;4.43;4.03;;;6.40;93.80;;;;;;5002241;28;20180;-75
2021/10/30 04:56:08;;;;;;;4.80;4.33;;;6.50;93.70;;;;;;5036040;28;20225;-74
2021/10/30 04:58:34;;;;;;;5.57;4.33;;;6.50;93.40;;;;;;5034295;28;20180;-75
2021/10/30 05:01:03;;;;;;;6.40;5.13;;;6.50;93.30;;;;;;5018219;28;20227;-74
2021/10/30 05:03:28;;;;;;;5.10;4.57;;;6.40;93.60;;;;;;5025477;28;20196;-74
2021/10/30 05:05:55;;;;;;;5.50;4.90;;;6.50;93.40;;;;;;5034603;28;20207;-74
2021/10/30 05:08:21;;;;;;;7.20;5.07;;;6.50;93.50;;;;;;5029128;28;20182;-74
2021/10/30 05:10:46;;;;;;;4.80;4.40;;;6.50;93.70;;;;;;5030693;28;20192;-74
2021/10/30 05:13:12;;;;;;;7.27;5.87;;;6.50;93.30;;;;;;5025905;28;20196;-74
2021/10/30 05:15:38;;;;;;;7.70;5.50;;;6.50;93.30;;;;;;5037157;28;20252;-74
2021/10/30 05:18:04;;;;;;;6.77;4.63;;;6.50;93.40;;;;;;5028754;28;20207;-75
2021/10/30 05:20:30;;;;;;;5.33;4.27;;;6.50;93.60;;;;;;5032521;28;20211;-75
2021/10/30 05:22:56;;;;;;;7.30;4.70;;;6.50;94.00;;;;;;5032169;28;20184;-75
2021/10/30 05:25:22;;;;;;;5.67;5.27;;;6.50;94.10;;;;;;5037859;28;20685;-74
2021/10/30 05:27:49;;;;;;;5.90;5.30;;;6.60;94.20;;;;;;5022154;28;20192;-75
2021/10/30 05:30:14;;;;;;;7.53;4.87;;;6.60;93.90;;;;;;5042374;28;20187;-75
2021/10/30 05:32:41;;;;;;;8.07;5.33;;;6.60;94.10;;;;;;5041482;28;20688;-75
2021/10/30 05:35:07;;;;;;;5.43;4.73;;;6.60;94.00;;;;;;5034303;28;20843;-75
2021/10/30 05:37:33;;;;;;;7.10;5.03;;;6.70;93.90;;;;;;5036610;28;20188;-75
2021/10/30 05:39:59;;;;;;;7.10;5.90;;;6.70;93.70;;;;;;5028178;28;20232;-74
2021/10/30 05:42:25;;;;;;;10.40;6.20;;;6.70;93.70;;;;;;5033750;28;20198;-74
2021/10/30 05:44:51;;;;;;;9.87;6.33;;;6.80;93.60;;;;;;5036284;28;21031;-74
2021/10/30 05:47:17;;;;;;;12.17;6.70;;;6.90;93.50;;;;;;5026882;28;20280;-75
2021/10/30 05:49:44;;;;;;;8.27;5.53;;;6.90;93.60;;;;;;5028462;28;20188;-72
2021/10/30 05:52:12;;;;;;;13.43;6.47;;;6.90;93.20;;;;;;5033111;28;20183;-72
2021/10/30 05:54:38;;;;;;;8.37;5.43;;;7.00;93.30;;;;;;5029193;28;20187;-73
2021/10/30 05:57:09;;;;;;;5.37;4.63;;;7.00;93.10;;;;;;5032564;28;20184;-73
2021/10/30 05:59:34;;;;;;;6.40;5.13;;;7.10;93.10;;;;;;5032851;28;20216;-73
2021/10/30 06:02:00;;;;;;;7.07;4.60;;;7.10;93.10;;;;;;5031828;28;20622;-74
2021/10/30 06:04:25;;;;;;;4.87;4.47;;;7.20;93.00;;;;;;5029758;28;20183;-73
2021/10/30 06:06:51;;;;;;;6.53;4.53;;;7.20;93.00;;;;;;5031788;28;20169;-72
2021/10/30 06:09:18;;;;;;;8.73;5.00;;;7.30;93.00;;;;;;5022302;28;20187;-74
2021/10/30 06:11:44;;;;;;;7.03;5.23;;;7.40;92.80;;;;;;5027743;28;20242;-73
2021/10/30 06:14:11;;;;;;;6.00;5.03;;;7.40;92.70;;;;;;5033320;28;20713;-74
2021/10/30 06:16:37;;;;;;;8.63;5.30;;;7.50;92.70;;;;;;5031582;28;20211;-73
2021/10/30 06:19:03;;;;;;;6.23;5.63;;;7.60;92.80;;;;;;5030081;28;20216;-72
2021/10/30 06:21:29;;;;;;;6.07;4.83;;;7.70;92.60;;;;;;5029795;28;20250;-72
2021/10/30 06:23:58;;;;;;;5.47;5.03;;;7.70;92.40;;;;;;5029369;28;20192;-73
2021/10/30 06:26:25;;;;;;;5.70;5.10;;;7.90;92.10;;;;;;5034338;28;20175;-72
2021/10/30 06:28:51;;;;;;;8.83;5.33;;;7.90;91.60;;;;;;5030506;28;20611;-71
2021/10/30 06:31:17;;;;;;;6.63;5.37;;;8.10;91.60;;;;;;5032435;28;20180;-72
2021/10/30 06:33:43;;;;;;;6.23;5.23;;;8.20;91.00;;;;;;5032343;28;20233;-72
2021/10/30 06:36:09;;;;;;;7.23;4.80;;;8.30;90.60;;;;;;5033706;28;20186;-71
2021/10/30 06:38:35;;;;;;;5.70;4.83;;;8.50;90.90;;;;;;5028866;28;20188;-71
2021/10/30 06:41:03;;;;;;;6.43;5.77;;;8.70;90.40;;;;;;5030291;28;20212;-72
2021/10/30 06:43:30;;;;;;;7.13;5.87;;;9.00;89.90;;;;;;5031631;28;20164;-72
2021/10/30 06:45:56;;;;;;;6.80;5.90;;;9.40;89.30;;;;;;5032567;28;20681;-72
2021/10/30 06:48:22;;;;;;;6.87;6.23;;;9.80;88.30;;;;;;5027285;28;20176;-72
2021/10/30 06:50:48;;;;;;;8.37;6.67;;;10.40;87.20;;;;;;5031767;28;20187;-72
2021/10/30 06:53:13;;;;;;;10.83;6.87;;;11.00;86.40;;;;;;5027966;28;20184;-72
2021/10/30 06:55:41;;;;;;;11.15;7.25;;;11.70;84.60;;;;;;5031764;28;20191;-72
2021/10/30 06:58:07;;;;;;;9.65;6.68;;;12.40;82.30;;;;;;5029179;28;20184;-72
2021/10/30 07:00:33;;;;;;;10.75;6.85;;;13.00;80.80;;;;;;5025441;28;20221;-74
2021/10/30 07:03:00;;;;;;;8.43;6.60;;;13.70;79.50;;;;;;5030183;28;20187;-74
2021/10/30 07:05:26;;;;;;;10.65;7.05;;;14.30;77.30;;;;;;5005294;28;20200;-75
2021/10/30 07:07:51;;;;;;;7.78;6.68;;;14.80;75.80;;;;;;5022530;28;20712;-74
2021/10/30 07:10:18;;;;;;;8.27;7.38;;;15.30;74.50;;;;;;5028463;28;20216;-75
2021/10/30 07:12:43;;;;;;;8.88;6.93;;;15.90;73.00;;;;;;5025422;28;20189;-75
2021/10/30 07:15:12;;;;;;;9.23;7.03;;;16.40;71.20;;;;;;5029200;28;20210;-76
2021/10/30 07:17:38;;;;;;;9.30;5.65;;;16.90;69.90;;;;;;5032357;28;20183;-75
2021/10/30 07:20:05;;;;;;;8.73;6.88;;;17.40;68.80;;;;;;5029527;28;20220;-72
2021/10/30 07:22:31;;;;;;;8.20;6.47;;;17.80;67.90;;;;;;5027436;28;20207;-74
2021/10/30 07:24:58;;;;;;;9.25;6.53;;;18.20;66.80;;;;;;5029046;28;20219;-74
2021/10/30 07:27:24;;;;;;;9.23;6.78;;;18.40;65.60;;;;;;5035936;28;20684;-74
2021/10/30 07:29:49;;;;;;;8.55;5.93;;;18.50;65.60;;;;;;5030967;28;20188;-74
2021/10/30 07:32:17;;;;;;;6.80;6.22;;;18.60;65.20;;;;;;5030285;28;20647;-72
2021/10/30 07:34:42;;;;;;;6.80;6.15;;;18.80;64.80;;;;;;5016644;28;20701;-73
2021/10/30 07:37:08;;;;;;;6.07;5.68;;;19.10;64.20;;;;;;5012442;28;20188;-74
2021/10/30 07:39:35;;;;;;;6.93;6.20;;;19.30;62.40;;;;;;5029202;28;20285;-74
2021/10/30 07:42:01;;;;;;;6.05;5.55;;;19.30;62.90;;;;;;5016084;28;20188;-74
2021/10/30 07:44:27;;;;;;;5.30;5.00;;;19.60;62.50;;;;;;5033121;28;20180;-74
2021/10/30 07:46:53;;;;;;;5.03;4.72;;;19.90;61.80;;;;;;5026268;28;20191;-78
2021/10/30 07:49:19;;;;;;;5.30;4.80;;;20.20;61.00;;;;;;5034324;28;20830;-78
2021/10/30 07:51:44;;;;;;;5.07;4.68;;;20.50;61.40;;;;;;5026138;28;20181;-76
2021/10/30 07:54:10;;;;;;;5.65;5.15;;;20.60;60.00;;;;;;5027052;28;20188;-78
2021/10/30 07:56:36;;;;;;;4.40;4.03;;;20.70;59.90;;;;;;5028540;28;20195;-79
2021/10/30 07:59:02;;;;;;;5.00;4.70;;;21.00;59.90;;;;;;5032155;28;20188;-78
2021/10/30 08:01:28;;;;;;;5.35;5.05;;;21.30;59.40;;;;;;5025421;28;20181;-78
2021/10/30 08:03:53;;;;;;;5.40;4.90;;;21.70;58.50;;;;;;5026429;28;20191;-78
2021/10/30 08:06:19;;;;;;;5.28;4.88;;;22.00;58.60;;;;;;5029865;28;20690;-79
2021/10/30 08:08:45;;;;;;;5.32;4.93;;;22.40;57.90;;;;;;5026229;28;20187;-79
2021/10/30 08:11:11;;;;;;;5.22;4.90;;;22.30;56.40;;;;;;5024857;28;20275;-79
2021/10/30 08:13:36;;;;;;;4.75;3.63;;;22.40;56.80;;;;;;5023091;28;20729;-78
2021/10/30 08:16:02;;;;;;;3.95;3.85;;;22.30;55.00;;;;;;5026987;28;20278;-78
2021/10/30 08:18:28;;;;;;;4.43;4.10;;;21.90;55.90;;;;;;5023575;28;20244;-76
2021/10/30 08:20:53;;;;;;;3.63;3.53;;;21.80;56.60;;;;;;5019610;28;20313;-77
2021/10/30 08:23:19;;;;;;;3.85;3.65;;;21.70;56.00;;;;;;5021007;28;20185;-78
2021/10/30 08:25:45;;;;;;;3.90;3.63;;;21.70;56.40;;;;;;5028121;28;20705;-77
2021/10/30 08:28:11;;;;;;;3.85;3.67;;;21.80;56.70;;;;;;5025175;28;20188;-77
2021/10/30 08:30:37;;;;;;;3.88;3.67;;;22.00;55.60;;;;;;5026418;28;20180;-77
2021/10/30 08:33:02;;;;;;;5.38;3.10;;;22.30;56.10;;;;;;5022755;28;20191;-74
2021/10/30 08:35:28;;;;;;;3.45;3.25;;;22.70;54.50;;;;;;5008100;28;20197;-73
2021/10/30 08:37:54;;;;;;;3.95;3.65;;;22.70;54.70;;;;;;5008567;28;20215;-74
2021/10/30 08:40:20;;;;;;;3.75;3.50;;;22.70;54.40;;;;;;5013329;28;20238;-77
2021/10/30 08:42:48;;;;;;;4.03;3.83;;;23.00;55.20;;;;;;4995026;28;20192;-77
2021/10/30 08:45:17;;;;;;;4.55;4.35;;;23.50;54.00;;;;;;5014678;28;20176;-77
2021/10/30 08:47:45;;;;;;;3.78;3.58;;;23.80;54.00;;;;;;5013339;28;20212;-77
2021/10/30 08:50:13;;;;;;;4.50;4.15;;;24.30;51.80;;;;;;5014308;28;20820;-78
2021/10/30 08:52:39;;;;;;;3.55;3.35;;;24.50;52.60;;;;;;5024047;28;20192;-78
2021/10/30 08:55:08;;;;;;;4.93;4.45;;;24.60;51.70;;;;;;5019509;28;20203;-78
2021/10/30 08:57:35;;;;;;;4.20;4.00;;;24.70;51.10;;;;;;5033184;28;20784;-80
2021/10/30 09:00:16;;;;;;;4.43;4.03;;;24.80;50.90;;;;;;5035215;28;20373;-78
2021/10/30 09:02:42;;;;;;;4.38;4.18;;;25.00;50.50;;;;;;5014953;28;20208;-78
2021/10/30 09:05:19;;;;;;;4.82;4.57;;;25.20;50.50;;;;;;5023689;28;20207;-77
2021/10/30 09:07:46;;;;;;;4.25;4.05;;;25.30;49.90;;;;;;5025132;28;20267;-77
2021/10/30 09:10:18;;;;;;;4.28;4.07;;;25.00;48.50;;;;;;5031323;28;20175;-76
2021/10/30 09:12:55;;;;;;;4.78;4.57;;;24.60;50.20;;;;;;5022606;28;20176;-77
2021/10/30 09:15:34;;;;;;;4.55;4.20;;;24.50;49.70;;;;;;5025111;28;20179;-77
2021/10/30 09:18:01;;;;;;;4.57;4.18;;;24.60;49.60;;;;;;5030408;28;20294;-77
2021/10/30 09:20:37;;;;;;;6.05;4.53;;;24.80;50.60;;;;;;5021611;28;20245;-75
2021/10/30 09:23:08;;;;;;;4.65;4.38;;;25.00;49.20;;;;;;5028512;28;21001;-72
2021/10/30 09:25:34;;;;;;;4.32;4.10;;;25.00;49.40;;;;;;5027073;28;20821;-73
2021/10/30 09:28:01;;;;;;;4.40;4.07;;;25.10;49.40;;;;;;5025573;28;20192;-73
2021/10/30 09:30:31;;;;;;;4.38;4.07;;;25.00;49.20;;;;;;5026302;28;20192;-74
2021/10/30 09:33:03;;;;;;;4.07;3.88;;;25.10;49.20;;;;;;5024786;28;20242;-74
2021/10/30 09:35:34;;;;;;;4.50;4.20;;;25.20;48.90;;;;;;5019040;28;20200;-74
2021/10/30 09:38:01;;;;;;;4.22;3.97;;;25.10;48.70;;;;;;5016909;28;20180;-73
2021/10/30 09:40:30;;;;;;;4.72;4.53;;;25.10;48.50;;;;;;5026588;28;20216;-72
2021/10/30 09:43:15;;;;;;;4.43;4.10;;;25.10;48.20;;;;;;5031626;28;20280;-72
2021/10/30 09:45:53;;;;;;;4.55;4.18;;;25.10;47.60;;;;;;5029836;28;20892;-73
2021/10/30 09:48:24;;;;;;;4.13;3.92;;;25.00;48.50;;;;;;5024247;28;20218;-74
2021/10/30 09:50:55;;;;;;;4.32;4.13;;;25.10;49.20;;;;;;5022295;28;20184;-73
2021/10/30 09:53:29;;;;;;;4.13;3.90;;;25.40;48.30;;;;;;5018991;28;20188;-73
2021/10/30 09:56:04;;;;;;;3.78;3.58;;;25.70;47.40;;;;;;5002480;28;20767;-73
2021/10/30 09:58:34;;;;;;;4.13;3.88;;;25.00;48.20;;;;;;5014715;28;20680;-73
2021/10/30 10:01:05;;;;;;;3.65;3.55;;;24.70;48.60;;;;;;5021996;28;20220;-72
2021/10/30 10:03:32;;;;;;;4.95;4.75;;;24.50;49.90;;;;;;5029053;28;20210;-74
2021/10/30 10:06:03;;;;;;;4.30;4.10;;;24.40;49.30;;;;;;5028091;28;20205;-74
2021/10/30 10:08:29;;;;;;;5.13;4.72;;;24.30;49.10;;;;;;5020490;28;20184;-74
2021/10/30 10:10:57;;;;;;;4.15;3.95;;;24.40;49.60;;;;;;5022004;28;20267;-73
2021/10/30 10:13:23;;;;;;;4.75;4.32;;;24.50;49.20;;;;;;5032669;28;21385;-74
2021/10/30 10:15:52;;;;;;;3.90;3.72;;;24.80;49.00;;;;;;5026709;28;20688;-73
2021/10/30 10:18:22;;;;;;;4.35;4.15;;;25.00;48.80;;;;;;5030274;28;20615;-77
2021/10/30 10:20:48;;;;;;;4.55;4.22;;;25.20;49.10;;;;;;5026696;28;20211;-76
2021/10/30 10:23:17;;;;;;;4.93;4.35;;;25.10;47.90;;;;;;5015859;28;20631;-77
2021/10/30 10:25:52;;;;;;;4.07;3.88;;;24.70;48.60;;;;;;5023878;28;20186;-76
2021/10/30 10:28:36;;;;;;;4.60;4.28;;;24.90;48.70;;;;;;5033466;28;20175;-75
2021/10/30 10:31:10;;;;;;;4.10;3.97;;;25.20;49.30;;;;;;5025178;28;20188;-76
2021/10/30 10:33:38;;;;;;;4.07;3.92;;;25.50;47.90;;;;;;5027422;28;20175;-73
2021/10/30 10:36:13;;;;;;;4.32;4.13;;;25.70;47.70;;;;;;5024271;28;20188;-73
2021/10/30 10:38:57;;;;;;;4.03;3.88;;;26.10;46.80;;;;;;5034423;28;20812;-73
2021/10/30 10:41:47;;;;;;;3.90;3.70;;;26.40;46.60;;;;;;5028672;28;20192;-73
2021/10/30 10:44:13;;;;;;;4.25;3.42;;;26.80;46.10;;;;;;4968691;28;20229;-71
2021/10/30 10:46:52;;;;;;;4.25;4.05;;;27.00;46.20;;;;;;4961565;28;20209;-73
2021/10/30 10:49:39;;;;;;;4.15;3.92;;;27.00;46.30;;;;;;4966144;28;20319;-74
2021/10/30 10:52:20;;;;;;;5.20;4.07;;;27.20;46.50;;;;;;4958831;28;20241;-73
2021/10/30 10:54:55;;;;;;;3.88;3.78;;;27.20;45.90;;;;;;4966870;28;20226;-72
2021/10/30 10:57:31;;;;;;;3.38;3.28;;;27.20;45.60;;;;;;4965965;28;20195;-72
2021/10/30 11:00:11;;;;;;;4.05;3.72;;;26.90;45.80;;;;;;4962853;28;20241;-72
2021/10/30 11:02:41;;;;;;;3.75;3.55;;;26.50;45.40;;;;;;4951166;28;20193;-72
2021/10/30 11:05:07;;;;;;;3.78;3.65;;;26.10;47.20;;;;;;4949165;28;20203;-72
2021/10/30 11:07:58;;;;;;;3.55;3.40;;;26.00;47.40;;;;;;4965279;28;20213;-71
2021/10/30 11:10:36;;;;;;;3.50;3.30;;;26.30;46.60;;;;;;4962055;28;20277;-72
2021/10/30 11:13:09;;;;;;;3.97;3.67;;;26.40;45.60;;;;;;4965078;28;20189;-72
2021/10/30 11:15:42;;;;;;;3.25;3.15;;;26.40;47.10;;;;;;4964864;28;20198;-71
2021/10/30 11:18:18;;;;;;;3.33;3.22;;;26.50;46.50;;;;;;4968115;28;20229;-73
2021/10/30 11:20:46;;;;;;;3.30;3.20;;;26.50;46.20;;;;;;4980868;28;20224;-71
2021/10/30 11:23:18;;;;;;;3.35;3.20;;;26.40;46.60;;;;;;5028410;28;20187;-73
2021/10/30 11:25:44;;;;;;;2.88;2.88;;;26.60;46.40;;;;;;5024876;28;20207;-74
2021/10/30 11:28:10;;;;;;;3.70;3.55;;;26.60;46.30;;;;;;5025118;28;20209;-74
2021/10/30 11:30:42;;;;;;;2.80;2.80;;;26.60;45.40;;;;;;5024243;28;20188;-74
2021/10/30 11:33:39;;;;;;;2.63;2.53;;;26.30;46.40;;;;;;5025277;28;20242;-75
2021/10/30 11:36:13;;;;;;;2.53;2.33;;;25.80;45.20;;;;;;4966897;28;20228;-76
2021/10/30 11:38:44;;;;;;;2.67;2.58;;;25.60;46.70;;;;;;4971286;28;20193;-77
2021/10/30 11:41:22;;;;;;;3.15;3.05;;;25.60;46.80;;;;;;4963733;28;20317;-77
2021/10/30 11:43:49;;;;;;;2.85;2.75;;;25.80;46.50;;;;;;4969969;28;20697;-77
2021/10/30 11:46:24;;;;;;;2.80;2.70;;;26.20;46.00;;;;;;4969820;28;20202;-76
2021/10/30 11:48:56;;;;;;;2.60;2.40;;;25.90;45.00;;;;;;4965411;28;20208;-73
2021/10/30 11:51:23;;;;;;;3.00;2.90;;;25.60;44.70;;;;;;4967144;28;20598;-72
2021/10/30 11:53:50;;;;;;;2.20;2.20;;;25.00;45.60;;;;;;4970414;28;20198;-73
2021/10/30 11:56:17;;;;;;;2.30;2.30;;;24.60;46.50;;;;;;4971223;28;21082;-76
2021/10/30 11:58:50;;;;;;;3.28;3.08;;;24.30;46.60;;;;;;4972510;28;20190;-75
2021/10/30 12:01:44;;;;;;;2.25;2.15;;;24.20;47.30;;;;;;4969972;28;20381;-73
2021/10/30 12:04:18;;;;;;;2.00;2.00;;;24.30;46.80;;;;;;4964726;28;20300;-74
2021/10/30 12:06:59;;;;;;;2.22;2.03;;;24.10;45.70;;;;;;4971597;28;20724;-75
2021/10/30 12:09:29;;;;;;;2.15;2.15;;;23.40;46.10;;;;;;4969083;28;20197;-75
2021/10/30 12:12:04;;;;;;;2.15;2.15;;;23.20;47.50;;;;;;4984076;28;20981;-75
2021/10/30 12:14:31;;;;;;;2.50;2.40;;;23.30;47.50;;;;;;5028940;28;21632;-75
2021/10/30 12:17:05;;;;;;;1.95;1.95;;;23.50;46.70;;;;;;5015308;28;20183;-74
2021/10/30 12:19:34;;;;;;;1.98;1.73;;;23.50;46.80;;;;;;5029860;28;20286;-72
2021/10/30 12:22:07;;;;;;;2.50;2.40;;;23.70;46.90;;;;;;5034814;28;20188;-69
2021/10/30 12:24:33;;;;;;;2.00;1.98;;;23.80;46.10;;;;;;5032090;28;20189;-73
2021/10/30 12:27:03;;;;;;;2.35;2.28;;;23.70;46.70;;;;;;5030165;28;20579;-72
2021/10/30 12:29:30;;;;;;;2.45;2.35;;;23.90;46.70;;;;;;5034067;28;20180;-73
2021/10/30 12:32:00;;;;;;;3.30;3.10;;;23.90;47.50;;;;;;5035246;28;20577;-73
2021/10/30 12:34:26;;;;;;;2.42;2.42;;;23.90;47.90;;;;;;5029958;28;20192;-71
2021/10/30 12:36:56;;;;;;;2.30;2.30;;;23.80;46.80;;;;;;5034250;28;20180;-72
2021/10/30 12:39:23;;;;;;;2.58;1.92;;;23.20;47.10;;;;;;5027732;28;20337;-74
2021/10/30 12:42:00;;;;;;;2.10;2.00;;;22.60;47.80;;;;;;5032400;28;20204;-72
2021/10/30 12:44:32;;;;;;;1.92;1.83;;;22.60;47.50;;;;;;5031279;28;20199;-73
2021/10/30 12:47:01;;;;;;;4.15;1.73;;;22.20;47.60;;;;;;5032144;28;20184;-73
2021/10/30 12:49:30;;;;;;;2.03;1.98;;;21.90;47.60;;;;;;5026535;28;20184;-73
2021/10/30 12:51:57;;;;;;;1.92;1.75;;;21.70;47.40;;;;;;5037476;28;20183;-73
2021/10/30 12:54:25;;;;;;;1.45;1.45;;;21.20;48.30;;;;;;5032188;28;20267;-73
2021/10/30 12:56:51;;;;;;;1.52;1.52;;;21.00;48.80;;;;;;5036930;28;20212;-73